createdAt,value
2022-09-23T00:04:00.138Z,17.41
2022-09-23T00:09:03.680Z,17.29
2022-09-23T00:14:07.228Z,17.21
2022-09-23T00:19:12.059Z,17.08
2022-09-23T00:24:16.474Z,17.02
2022-09-23T00:29:19.925Z,16.99
2022-09-23T00:34:24.836Z,16.93
2022-09-23T00:39:28.307Z,16.81
2022-09-23T00:44:56.110Z,16.75
2022-09-23T00:50:04.819Z,16.66
2022-09-23T00:55:13.203Z,16.60
2022-09-23T01:00:16.724Z,16.40
2022-09-23T01:05:22.315Z,16.47
2022-09-23T01:10:26.331Z,16.51
2022-09-23T01:15:36.571Z,16.48
2022-09-23T01:20:59.211Z,16.39
2022-09-23T01:26:15.706Z,16.27
2022-09-23T01:31:24.162Z,16.18
2022-09-23T01:36:31.013Z,16.14
2022-09-23T01:41:47.012Z,16.07
2022-09-23T01:46:54.888Z,16.00
2022-09-23T01:52:01.110Z,15.99
2022-09-23T01:57:06.400Z,15.75
2022-09-23T02:02:15.280Z,15.74
2022-09-23T02:07:22.562Z,15.72
2022-09-23T02:12:28.491Z,15.64
2022-09-23T02:17:39.540Z,15.35
2022-09-23T02:22:49.836Z,15.50
2022-09-23T02:27:57.382Z,15.51
2022-09-23T02:33:04.801Z,15.51
2022-09-23T02:38:15.918Z,15.49
2022-09-23T02:43:23.593Z,15.39
2022-09-23T02:48:33.274Z,15.48
2022-09-23T02:53:37.169Z,15.50
2022-09-23T02:58:40.767Z,15.50
2022-09-23T03:03:48.427Z,15.61
2022-09-23T03:08:55.788Z,15.58
2022-09-23T03:14:17.481Z,15.72
2022-09-23T03:19:26.453Z,15.78
2022-09-23T03:24:32.085Z,15.89
2022-09-23T03:29:37.329Z,15.83
2022-09-23T03:34:43.820Z,15.93
2022-09-23T03:39:51.170Z,15.96
2022-09-23T03:44:57.170Z,15.91
2022-09-23T03:50:02.263Z,15.70
2022-09-23T03:55:06.495Z,15.79
2022-09-23T04:00:11.549Z,15.81
2022-09-23T04:05:16.616Z,15.76
2022-09-23T04:10:20.281Z,15.74
2022-09-23T04:15:23.704Z,15.84
2022-09-23T04:20:28.876Z,15.81
2022-09-23T04:25:32.390Z,15.79
2022-09-23T04:30:36.060Z,15.87
2022-09-23T04:35:43.425Z,15.88
2022-09-23T04:40:47.052Z,15.91
2022-09-23T04:45:58.899Z,16.02
2022-09-23T04:51:09.383Z,16.08
2022-09-23T04:56:14.587Z,16.07
2022-09-23T05:01:19.558Z,15.83
2022-09-23T05:06:25.247Z,16.04
2022-09-23T05:11:30.926Z,16.23
2022-09-23T05:16:34.430Z,16.38
2022-09-23T05:21:39.267Z,16.41
2022-09-23T05:26:43.040Z,16.43
2022-09-23T05:31:46.517Z,16.47
2022-09-23T05:36:51.681Z,16.63
2022-09-23T05:41:55.559Z,16.75
2022-09-23T05:46:59.001Z,16.87
2022-09-23T05:52:04.026Z,16.87
2022-09-23T05:57:07.806Z,16.93
2022-09-23T06:02:11.338Z,17.11
2022-09-23T06:07:16.181Z,17.24
2022-09-23T06:12:19.743Z,17.25
2022-09-23T06:17:23.127Z,17.37
2022-09-23T06:22:27.893Z,17.49
2022-09-23T06:27:31.741Z,17.57
2022-09-23T06:32:35.751Z,17.80
2022-09-23T06:37:40.578Z,17.86
2022-09-23T06:42:45.176Z,18.04
2022-09-23T06:47:56.155Z,18.08
2022-09-23T06:53:00.990Z,18.10
2022-09-23T06:58:04.484Z,18.05
2022-09-23T07:03:08.771Z,18.15
2022-09-23T07:08:13.587Z,18.31
2022-09-23T07:13:17.446Z,18.38
2022-09-23T07:18:23.767Z,18.47
2022-09-23T07:23:28.618Z,18.60
2022-09-23T07:28:32.465Z,18.68
2022-09-23T07:33:36.271Z,19.01
2022-09-23T07:38:45.145Z,19.18
2022-09-23T07:43:49.035Z,18.65
2022-09-23T07:48:53.074Z,19.22
2022-09-23T07:53:58.527Z,19.39
2022-09-23T07:59:03.777Z,19.79
2022-09-23T08:04:09.508Z,20.28
2022-09-23T08:09:14.624Z,20.43
2022-09-23T08:14:18.940Z,20.55
2022-09-23T08:19:22.638Z,21.02
2022-09-23T08:24:27.584Z,21.05
2022-09-23T08:29:54.362Z,21.04
2022-09-23T08:43:06.970Z,21.58
2022-09-23T09:02:55.610Z,22.12
2022-09-23T09:08:40.149Z,22.09
2022-09-23T09:13:48.939Z,22.54
2022-09-23T09:25:46.218Z,23.03
2022-09-23T09:37:53.537Z,23.89
2022-09-23T09:43:04.671Z,23.55
2022-09-23T09:48:35.669Z,23.73
2022-09-23T09:53:44.881Z,24.05
2022-09-23T09:58:49.926Z,24.65
2022-09-23T10:03:56.924Z,24.83
2022-09-23T10:09:19.258Z,25.13
2022-09-23T10:14:23.661Z,25.27
2022-09-23T10:19:29.216Z,25.15
2022-09-23T10:24:36.321Z,25.61
2022-09-23T10:29:41.549Z,25.31
2022-09-23T10:34:46.903Z,25.57
2022-09-23T10:40:12.041Z,25.84
2022-09-23T10:45:39.763Z,26.44
2022-09-23T10:50:49.003Z,26.75
2022-09-23T10:56:15.487Z,27.25
2022-09-23T11:01:31.030Z,27.12
2022-09-23T11:06:42.857Z,27.16
2022-09-23T11:11:55.921Z,27.74
2022-09-23T11:17:32.677Z,28.03
2022-09-23T11:22:53.197Z,27.83
2022-09-23T11:28:18.391Z,28.25
2022-09-23T11:33:31.862Z,28.59
2022-09-23T11:38:39.571Z,28.54
2022-09-23T11:43:45.564Z,28.33
2022-09-23T11:48:53.019Z,28.53
2022-09-23T11:54:00.180Z,28.22
2022-09-23T11:59:13.944Z,28.38
2022-09-23T12:04:22.719Z,28.52
2022-09-23T12:09:56.493Z,28.22
2022-09-23T12:15:02.762Z,28.23
2022-09-23T12:20:17.059Z,28.01
2022-09-23T12:25:46.419Z,27.99
2022-09-23T12:30:52.863Z,27.34
2022-09-23T12:35:57.381Z,27.26
2022-09-23T12:41:01.129Z,26.41
2022-09-23T12:46:25.620Z,27.25
2022-09-23T12:51:30.206Z,26.89
2022-09-23T12:57:01.964Z,27.54
2022-09-23T13:02:33.435Z,27.57
2022-09-23T13:07:42.196Z,27.49
2022-09-23T13:12:46.285Z,27.38
2022-09-23T13:17:51.138Z,27.07
2022-09-23T13:23:17.345Z,27.25
2022-09-23T13:28:30.563Z,27.25
2022-09-23T13:33:43.177Z,26.95
2022-09-23T13:38:47.117Z,27.51
2022-09-23T13:43:52.357Z,27.08
2022-09-23T13:48:57.821Z,27.16
2022-09-23T13:54:03.007Z,26.81
2022-09-23T13:59:25.197Z,26.89
2022-09-23T14:04:29.960Z,26.92
2022-09-23T14:09:33.438Z,27.15
2022-09-23T14:14:38.379Z,26.87
2022-09-23T14:19:43.511Z,27.60
2022-09-23T14:24:47.506Z,27.08
2022-09-23T14:29:51.069Z,27.42
2022-09-23T14:35:09.155Z,27.07
2022-09-23T14:40:15.811Z,27.20
2022-09-23T14:45:22.428Z,26.95
2022-09-23T14:50:39.929Z,27.03
2022-09-23T14:55:43.855Z,26.79
2022-09-23T15:00:52.795Z,26.91
2022-09-23T15:05:59.730Z,26.98
2022-09-23T15:11:07.856Z,26.72
2022-09-23T15:16:14.179Z,26.39
2022-09-23T15:21:21.861Z,26.44
2022-09-23T15:26:26.639Z,26.47
2022-09-23T15:31:30.041Z,26.33
2022-09-23T15:36:35.704Z,26.29
2022-09-23T15:41:39.194Z,26.13
2022-09-23T15:46:46.491Z,26.11
2022-09-23T15:51:52.068Z,26.02
2022-09-23T15:56:56.230Z,25.87
2022-09-23T16:02:03.176Z,25.22
2022-09-23T16:07:11.089Z,25.77
2022-09-23T16:12:15.501Z,25.72
2022-09-23T16:17:19.064Z,25.72
2022-09-23T16:22:23.911Z,25.64
2022-09-23T16:27:27.342Z,25.49
2022-09-23T16:32:30.737Z,25.46
2022-09-23T16:37:36.054Z,25.33
2022-09-23T16:42:39.767Z,25.17
2022-09-23T16:47:45.255Z,25.07
2022-09-23T16:52:52.350Z,25.01
2022-09-23T16:57:55.990Z,24.89
2022-09-23T17:03:17.387Z,24.86
2022-09-23T17:08:22.234Z,24.77
2022-09-23T17:13:26.411Z,24.70
2022-09-23T17:18:29.864Z,24.46
2022-09-23T17:23:35.841Z,24.26
2022-09-23T17:28:39.416Z,24.08
2022-09-23T17:33:42.886Z,24.02
2022-09-23T17:38:48.518Z,23.87
2022-09-23T17:43:56.545Z,23.70
2022-09-23T17:48:59.895Z,23.65
2022-09-23T17:54:04.991Z,23.58
2022-09-23T17:59:11.378Z,23.57
2022-09-23T18:04:14.863Z,23.54
2022-09-23T18:09:20.109Z,23.41
2022-09-23T18:14:23.979Z,23.34
2022-09-23T18:19:27.544Z,23.17
2022-09-23T18:24:37.758Z,23.04
2022-09-23T18:29:41.233Z,23.07
2022-09-23T18:34:44.637Z,23.03
2022-09-23T18:39:49.888Z,22.88
2022-09-23T18:44:56.309Z,22.96
2022-09-23T18:50:25.563Z,22.68
2022-09-23T18:55:34.037Z,22.66
2022-09-23T19:00:37.754Z,22.58
2022-09-23T19:05:41.301Z,22.45
2022-09-23T19:10:46.781Z,22.50
2022-09-23T19:15:50.261Z,22.46
2022-09-23T19:20:54.609Z,22.43
2022-09-23T19:26:02.387Z,22.36
2022-09-23T19:31:10.777Z,22.44
2022-09-23T19:36:14.208Z,22.42
2022-09-23T19:41:19.983Z,22.47
2022-09-23T19:46:23.616Z,22.47
2022-09-23T19:51:27.342Z,22.37
2022-09-23T19:56:32.851Z,22.45
2022-09-23T20:01:36.730Z,22.40
2022-09-23T20:06:40.874Z,22.41
2022-09-23T20:11:45.620Z,22.39
2022-09-23T20:16:49.354Z,22.34
2022-09-23T20:22:12.741Z,22.25
2022-09-23T20:27:17.595Z,22.23
2022-09-23T20:32:21.411Z,22.17
2022-09-23T20:37:25.757Z,22.12
2022-09-23T20:42:30.573Z,21.93
2022-09-23T20:47:33.952Z,21.90
2022-09-23T20:52:37.348Z,21.85
2022-09-23T20:57:44.243Z,21.92
2022-09-23T21:02:48.052Z,21.98
2022-09-23T21:07:51.447Z,21.92
2022-09-23T21:12:56.271Z,21.68
2022-09-23T21:18:00.138Z,21.87
2022-09-23T21:23:03.512Z,21.74
2022-09-23T21:28:08.262Z,21.75
2022-09-23T21:33:11.889Z,21.64
2022-09-23T21:38:15.215Z,21.64
2022-09-23T21:43:20.032Z,21.56
2022-09-23T21:48:24.203Z,21.66
2022-09-23T21:53:29.646Z,21.64
2022-09-23T21:58:35.417Z,21.54
2022-09-23T22:03:39.176Z,21.49
2022-09-23T22:08:43.975Z,21.50
2022-09-23T22:13:48.815Z,21.54
2022-09-23T22:18:55.071Z,21.36
2022-09-23T22:24:01.056Z,21.32
2022-09-23T22:29:30.255Z,21.46
2022-09-23T22:34:51.173Z,21.40
2022-09-23T22:39:55.859Z,21.44
2022-09-23T22:45:00.694Z,21.38
2022-09-23T22:50:04.395Z,21.39
2022-09-23T22:55:08.833Z,21.30
2022-09-23T23:00:14.827Z,21.22
2022-09-23T23:05:18.246Z,21.25
2022-09-23T23:10:24.624Z,21.28
2022-09-23T23:15:30.326Z,21.31
2022-09-23T23:20:33.914Z,21.29
2022-09-23T23:25:37.303Z,21.28
2022-09-23T23:30:42.035Z,21.26
2022-09-23T23:35:51.214Z,21.19
2022-09-23T23:40:55.417Z,21.23
2022-09-23T23:46:01.437Z,21.16
2022-09-23T23:51:06.403Z,20.91
2022-09-23T23:56:11.439Z,21.11
